Terminal Aerodrome Forecast
Issued by NWS

Home | Current Version | Previous Version | Text Only | Print | Product List | Glossary On
Versions: 1 2 3 4 5 6 7 8 9 10 11 12 13 14 15 16 17
000
FTUS42 KFFC 290107 AAA
TAFRYY
TAF AMD
KRYY 290107Z 2901/2924 30005KT P6SM OVC012
     FM290300 00000KT 4SM -RA BR OVC005
     FM290600 00000KT 1SM -RA BR OVC005
     FM291300 00000KT 3SM BR OVC006
     FM291800 35003KT P6SM BKN014
     FM292100 33006KT P6SM BKN025=

USA.gov is the U.S. government's official web portal to all federal, state and local government web resources and services.